Latest Weather Observations for Shepparton

IDV60801

Issued at 9:02 pm EDT Sunday 25 January 2015 (issued every 30 minutes, with the page automatically refreshed every 10 minutes)

About weather observations | Map of weather stations | Latest weather observations for VIC | Other Formats
Station Details ID: 081125 Name: SHEPPARTON AIRPORT Lat: -36.43 Lon: 145.39 Height: 113.9 m
Data from the previous 72 hours. | See also: Recent months at Shepparton
Date/Time
EDT
Temp
°C
App
Temp
°C
Dew
Point
Rel
Hum
%
Delta-T
°C
Wind Press
QNH
hPa
Press
MSL
hPa
Rain
since 9 am
mm
Dir
 
Spd
km/h
Gust
km/h
Spd
kts
Gust
kts
25/09:00pm 19.3 12.4 2.6 33 7.8 S 28 41 15 22 1010.4 1009.8 0.0
25/08:30pm 20.6 13.9 1.5 28 8.8 SSW 26 35 14 19 1009.6 1009.1 0.0
25/08:00pm 21.7 15.3 0.8 25 9.6 SSW 24 33 13 18 1009.1 1008.6 0.0
25/07:30pm 22.8 15.5 0.0 22 10.4 SSW 28 35 15 19 1008.8 1008.3 0.0
25/07:00pm 23.6 17.2 0.7 22 10.6 SSW 24 39 13 21 1008.3 1007.8 0.0
25/06:30pm 23.6 15.7 -1.3 19 11.1 SSW 30 44 16 24 1007.8 1007.3 0.0
25/06:00pm 24.4 17.2 0.7 21 11.1 SW 28 44 15 24 1007.7 1007.2 0.0
25/05:30pm 24.7 17.0 -0.4 19 11.5 WSW 30 54 16 29 1007.6 1007.1 0.0
25/05:23pm 24.6 16.5 -0.5 19 11.5 WSW 32 54 17 29 1007.4 1006.9 0.0
25/05:00pm 24.5 18.4 0.1 20 11.3 SW 22 32 12 17 1007.7 1007.2 0.0
25/04:30pm 24.4 16.2 -0.7 19 11.4 WSW 32 44 17 24 1007.6 1007.1 0.0
25/04:00pm 25.5 18.2 0.2 19 11.8 WSW 28 43 15 23 1007.6 1007.1 0.0
25/03:30pm 24.6 18.2 0.8 21 11.1 SW 24 39 13 21 1007.8 1007.3 0.0
25/03:00pm 24.1 17.1 -0.2 20 11.1 WSW 26 37 14 20 1007.6 1007.1 0.0
25/02:30pm 23.3 16.5 1.0 23 10.4 WSW 26 39 14 21 1007.6 1007.1 0.0
25/02:00pm 23.2 16.1 1.5 24 10.2 WSW 28 41 15 22 1007.6 1007.1 0.0
25/01:30pm 23.3 16.5 3.3 27 9.7 WSW 28 37 15 20 1007.6 1007.1 0.0
25/01:00pm 23.1 15.7 2.0 25 10.0 WSW 30 41 16 22 1007.7 1007.2 0.0
25/12:30pm 22.4 17.3 5.8 34 8.4 SW 22 35 12 19 1007.7 1007.2 0.0
25/12:00pm 22.1 17.0 5.9 35 8.2 W 22 32 12 17 1007.5 1007.0 0.0
25/11:30am 22.2 17.2 6.4 36 8.1 W 22 39 12 21 1007.5 1007.0 0.0
25/11:00am 21.4 17.2 8.3 43 6.9 WSW 20 32 11 17 1007.4 1006.9 0.0
25/10:30am 21.0 16.4 8.3 44 6.7 SW 22 33 12 18 1007.3 1006.8 0.0
25/10:00am 20.9 15.3 8.9 46 6.4 WSW 28 39 15 21 1007.2 1006.7 0.0
25/09:30am 20.3 15.2 9.2 49 5.9 SW 26 39 14 21 1007.0 1006.5 0.0
25/09:00am 19.4 15.3 10.1 55 5.0 SW 22 33 12 18 1006.8 1006.3 0.0
25/08:30am 18.7 15.7 10.5 59 4.4 WSW 17 24 9 13 1006.6 1006.1 0.0
25/08:00am 17.6 14.8 10.0 61 4.1 W 15 19 8 10 1006.2 1005.7 0.0
25/07:30am 16.9 14.4 9.6 62 3.9 WNW 13 20 7 11 1006.0 1005.5 0.0
25/07:00am 15.1 13.3 9.5 69 2.9 W 9 13 5 7 1005.5 1005.0 0.0
25/06:30am 14.9 13.3 8.8 67 3.1 WNW 7 9 4 5 1005.1 1004.6 0.0
25/06:00am 15.0 13.3 8.5 65 3.3 NW 7 7 4 4 1004.7 1004.2 0.0
25/05:30am 15.5 14.7 8.3 62 3.7 W 2 7 1 4 1004.6 1004.1 0.0
25/05:00am 16.2 14.5 8.4 60 4.0 WNW 7 9 4 5 1004.5 1004.0 0.0
25/04:30am 16.9 15.4 8.3 57 4.4 WNW 6 9 3 5 1004.0 1003.5 0.0
25/04:00am 17.8 15.3 8.4 54 4.9 WSW 11 17 6 9 1003.8 1003.3 0.0
25/03:30am 18.1 15.6 8.1 52 5.1 WSW 11 17 6 9 1003.6 1003.1 0.0
25/03:00am 19.1 14.8 7.8 48 5.8 WSW 20 30 11 16 1003.5 1003.0 0.0
25/02:30am 19.7 15.4 7.8 46 6.2 WSW 20 30 11 16 1003.4 1002.9 0.0
25/02:00am 20.3 15.2 7.7 44 6.6 WSW 24 32 13 17 1003.1 1002.5 0.0
25/01:30am 21.0 16.6 7.3 41 7.1 W 20 28 11 15 1003.0 1002.4 0.0
25/01:00am 22.0 16.3 6.7 37 7.9 WSW 26 37 14 20 1003.0 1002.4 0.0
25/12:30am 23.1 17.6 6.0 33 8.8 WSW 24 32 13 17 1002.8 1002.2 0.0
25/12:00am 23.8 18.9 5.2 30 9.4 WSW 20 28 11 15 1003.0 1002.4 0.0
 
Date/Time
EDT
Temp
°C
App
Temp
°C
Dew
Point
Rel
Hum
%
Delta-T
°C
Wind Press
QNH
hPa
Press
MSL
hPa
Rain
since 9 am
mm
Dir
 
Spd
km/h
Gust
km/h
Spd
kts
Gust
kts
24/11:30pm 24.7 18.9 4.5 27 10.1 WSW 24 33 13 18 1002.9 1002.3 0.0
24/11:00pm 23.4 18.9 4.4 29 9.5 WSW 17 24 9 13 1003.0 1002.4 0.0
24/10:30pm 23.6 19.6 3.0 26 10.0 W 13 17 7 9 1003.2 1002.7 0.0
24/10:00pm 25.0 20.2 2.4 23 11.0 W 17 24 9 13 1002.8 1002.2 0.0
24/09:30pm 26.4 21.1 1.7 20 11.9 W 19 26 10 14 1002.4 1001.8 0.0
24/09:00pm 27.5 22.0 1.8 19 12.6 WSW 20 28 11 15 1002.0 1001.4 0.0
24/08:30pm 28.4 23.7 5.3 23 12.0 WSW 19 26 10 14 1001.8 1001.2 0.0
24/08:00pm 30.1 24.8 6.7 23 12.7 WSW 24 33 13 18 1001.3 1000.7 0.0
24/07:30pm 31.3 27.3 10.6 28 11.9 W 22 35 12 19 1000.7 1000.2 0.0
24/07:00pm 31.3 27.6 10.1 27 12.2 WNW 20 33 11 18 1000.7 1000.2 0.0
24/06:30pm 32.3 27.9 10.4 26 12.6 WNW 24 35 13 19 1000.7 1000.2 0.0
24/06:00pm 32.6 28.3 10.6 26 12.8 NW 24 37 13 20 1000.9 1000.4 0.0
24/05:30pm 32.7 28.9 11.3 27 12.6 WNW 22 35 12 19 1001.3 1000.7 0.0
24/05:00pm 32.5 29.1 11.1 27 12.6 WNW 20 41 11 22 1001.5 1000.9 0.0
24/04:30pm 31.3 27.5 11.1 29 11.7 WNW 22 32 12 17 1002.0 1001.4 0.0
24/04:00pm 32.2 29.0 11.4 28 12.2 W 19 39 10 21 1002.3 1001.7 0.0
24/03:30pm 32.3 29.1 12.0 29 12.0 W 20 33 11 18 1003.0 1002.4 0.0
24/03:00pm 31.5 28.2 10.8 28 12.0 NW 19 33 10 18 1003.4 1002.9 0.0
24/02:30pm 30.4 27.7 10.4 29 11.5 WSW 15 24 8 13 1003.6 1003.1 0.0
24/02:00pm 29.7 27.5 10.8 31 10.9 NNW 13 28 7 15 1004.0 1003.5 0.0
24/01:30pm 28.5 26.5 11.6 35 9.8 NW 13 19 7 10 1004.6 1004.1 0.0
24/01:00pm 28.4 25.4 9.2 30 10.7 W 15 22 8 12 1004.7 1004.2 0.0
24/12:30pm 28.0 25.3 10.2 33 10.0 W 15 30 8 16 1005.0 1004.5 0.0
24/12:00pm 27.2 24.1 10.4 35 9.5 W 17 26 9 14 1005.4 1004.9 0.0
24/11:30am 27.0 24.7 13.0 42 8.2 WSW 17 22 9 12 1005.5 1005.0 0.0
24/11:00am 26.5 24.6 11.8 40 8.5 W 13 22 7 12 1005.5 1005.0 0.0
24/10:30am 25.8 25.4 14.0 48 7.0 SSW 9 17 5 9 1005.5 1005.0 0.0
24/10:00am 24.5 24.6 14.0 52 6.2 ENE 6 11 3 6 1005.6 1005.1 0.0
24/09:30am 22.2 22.4 14.1 60 4.8 S 6 9 3 5 1005.7 1005.2 0.0
24/09:00am 20.2 20.5 13.4 65 3.9 SSE 4 7 2 4 1005.7 1005.2 0.0
24/08:30am 19.1 19.0 13.3 69 3.3 S 6 11 3 6 1005.5 1005.0 0.0
24/08:00am 16.9 16.0 12.6 76 2.4 SE 9 13 5 7 1005.7 1005.2 0.0
24/07:30am 16.7 15.9 13.0 79 2.1 S 9 15 5 8 1005.1 1004.6 0.0
24/07:00am 15.9 15.0 12.6 81 1.8 SSW 9 11 5 6 1005.2 1004.7 0.0
24/06:30am 15.4 14.5 12.5 83 1.6 SW 9 11 5 6 1005.0 1004.5 0.0
24/06:00am 15.5 14.5 12.4 82 1.7 SSW 9 11 5 6 1004.7 1004.2 0.0
24/05:30am 15.8 15.4 12.5 81 1.8 SW 6 9 3 5 1004.6 1004.1 0.0
24/05:00am 16.0 15.0 12.4 79 2.0 S 9 13 5 7 1004.4 1003.9 0.0
24/04:30am 16.1 14.8 12.5 79 2.0 SW 11 13 6 7 1004.4 1003.9 0.0
24/04:00am 16.2 15.2 12.4 78 2.1 WSW 9 11 5 6 1004.2 1003.7 0.0
24/03:30am 16.5 16.0 12.5 77 2.2 SW 7 9 4 5 1004.4 1003.9 0.0
24/03:00am 16.9 15.6 12.4 75 2.5 SSW 11 15 6 8 1004.2 1003.7 0.0
24/02:30am 17.3 15.6 12.4 73 2.7 SSW 13 17 7 9 1004.5 1004.0 0.0
24/02:00am 17.8 15.4 12.5 71 3.0 SSW 17 24 9 13 1004.7 1004.2 0.0
24/01:30am 18.4 16.0 12.8 70 3.2 S 17 22 9 12 1005.0 1004.5 0.0
24/01:00am 19.3 17.5 13.2 68 3.5 SSW 15 20 8 11 1005.1 1004.6 0.0
24/12:30am 19.9 18.2 13.6 67 3.6 SSW 15 19 8 10 1005.0 1004.5 0.0
24/12:00am 20.5 19.2 13.7 65 3.9 S 13 19 7 10 1005.2 1004.7 0.0
 
Date/Time
EDT
Temp
°C
App
Temp
°C
Dew
Point
Rel
Hum
%
Delta-T
°C
Wind Press
QNH
hPa
Press
MSL
hPa
Rain
since 9 am
mm
Dir
 
Spd
km/h
Gust
km/h
Spd
kts
Gust
kts
23/11:30pm 21.4 19.1 14.1 63 4.3 S 19 24 10 13 1005.1 1004.6 0.0
23/11:00pm 22.3 19.1 14.2 60 4.8 S 24 33 13 18 1005.1 1004.6 0.0
23/10:30pm 23.2 20.7 14.2 57 5.3 S 20 26 11 14 1005.1 1004.6 0.0
23/10:00pm 24.1 21.4 14.5 55 5.7 S 22 32 12 17 1004.8 1004.3 0.0
23/09:30pm 24.7 22.6 14.8 54 5.9 SSW 19 28 10 15 1004.5 1004.0 0.0
23/09:00pm 25.8 23.5 14.6 50 6.7 SSW 20 30 11 16 1004.0 1003.5 0.0
23/08:30pm 27.2 24.7 14.2 44 7.8 S 20 32 11 17 1003.5 1003.0 0.0
23/08:00pm 30.0 26.5 13.3 36 10.0 S 24 33 13 18 1002.9 1002.3 0.0
23/07:30pm 33.3 29.1 11.2 26 13.0 SSW 24 33 13 18 1002.3 1001.7 0.0
23/07:00pm 34.6 28.9 9.8 22 14.4 WSW 30 44 16 24 1001.8 1001.2 0.0
23/06:30pm 34.7 28.5 9.2 21 14.6 WSW 32 44 17 24 1001.6 1001.0 0.0
23/06:00pm 35.8 30.0 9.3 20 15.3 WSW 30 44 16 24 1001.8 1001.2 0.0
23/05:30pm 36.2 29.9 9.7 20 15.4 WSW 33 44 18 24 1001.9 1001.3 0.0
23/05:00pm 35.9 30.3 10.2 21 15.1 WSW 30 43 16 23 1001.7 1001.1 0.0
23/04:30pm 36.6 31.0 11.4 22 15.0 W 32 43 17 23 1002.0 1001.4 0.0
23/04:15pm 36.9 31.2 11.7 22 15.1 WSW 33 52 18 28 1001.9 1001.3 0.0
23/04:00pm 36.5 31.2 11.3 22 15.1 W 30 43 16 23 1002.1 1001.5 0.0
23/03:41pm 37.2 32.1 11.9 22 15.2 W 30 50 16 27 1002.1 1001.5 0.0
23/03:30pm 38.0 32.5 12.6 22 15.5 W 33 50 18 27 1002.1 1001.5 0.0
23/03:00pm 37.6 32.6 12.3 22 15.4 W 30 50 16 27 1002.4 1001.8 0.0
23/02:52pm 37.0 31.5 11.8 22 15.2 W 32 50 17 27 1002.5 1001.9 0.0
23/02:30pm 37.9 32.6 11.1 20 16.0 WNW 30 44 16 24 1002.7 1002.1 0.0
23/02:06pm 37.3 32.6 12.0 22 15.3 WNW 28 50 15 27 1002.8 1002.2 0.0
23/02:00pm 37.8 33.2 12.4 22 15.5 NW 28 44 15 24 1002.9 1002.3 0.0
23/01:35pm 37.4 32.7 12.1 22 15.3 WNW 28 46 15 25 1003.2 1002.7 0.0
23/01:30pm 36.6 31.7 11.4 22 15.0 W 28 43 15 23 1003.3 1002.8 0.0
23/01:21pm 37.1 32.3 11.8 22 15.2 W 28 46 15 25 1003.4 1002.9 0.0
23/01:00pm 37.3 33.0 12.0 22 15.3 NW 26 39 14 21 1003.7 1003.2 0.0
23/12:30pm 36.0 31.2 11.6 23 14.6 WNW 28 46 15 25 1004.1 1003.6 0.0
23/12:13pm 36.5 32.0 12.7 24 14.5 WNW 28 46 15 25 1004.2 1003.7 0.0
23/12:00pm 35.9 32.6 12.8 25 14.1 NW 22 37 12 20 1004.4 1003.9 0.0
23/11:30am 34.6 31.3 12.9 27 13.1 NW 22 35 12 19 1004.6 1004.1 0.0
23/11:00am 34.7 32.4 14.0 28 12.8 NNW 19 28 10 15 1004.9 1004.4 0.0
23/10:30am 33.0 30.3 14.6 33 11.4 N 22 32 12 17 1005.0 1004.5 0.0
23/10:00am 31.5 29.2 14.6 36 10.4 NNW 20 30 11 16 1005.5 1005.0 0.0
23/09:30am 30.6 28.8 15.5 40 9.4 N 19 24 10 13 1005.9 1005.4 0.0
23/09:00am 28.5 27.3 16.1 47 7.7 N 17 20 9 11 1006.1 1005.6 0.0
23/08:30am 27.4 25.9 16.4 51 6.8 N 19 26 10 14 1005.9 1005.4 0.0
23/08:00am 25.4 25.2 16.8 59 5.4 NNE 13 19 7 10 1005.7 1005.2 0.0
23/07:30am 23.7 23.4 16.5 64 4.4 NE 13 19 7 10 1005.6 1005.1 0.0
23/07:00am 23.0 23.4 16.3 66 4.1 NNE 9 13 5 7 1005.5 1005.0 0.0
23/06:30am 22.9 23.7 16.4 67 4.0 NNE 7 11 4 6 1005.4 1004.9 0.0
23/06:00am 22.7 23.5 16.3 67 3.9 NNE 7 9 4 5 1005.2 1004.7 0.0
23/05:30am 23.2 23.6 16.3 65 4.2 NNE 9 13 5 7 1004.8 1004.3 0.0
23/05:00am 23.2 23.6 16.3 65 4.2 NNE 9 13 5 7 1004.8 1004.3 0.0
23/04:30am 23.6 23.5 16.1 62 4.6 NNE 11 15 6 8 1004.7 1004.2 0.0
23/04:00am 23.8 23.4 16.1 62 4.7 NNE 13 17 7 9 1004.7 1004.2 0.0
23/03:30am 24.2 23.7 15.9 59 5.1 NNE 13 17 7 9 1004.9 1004.4 0.0
23/03:00am 24.4 24.3 15.9 59 5.2 NNE 11 15 6 8 1005.1 1004.6 0.0
23/02:30am 25.3 24.8 15.9 56 5.8 NNE 13 17 7 9 1005.3 1004.8 0.0
23/02:00am 25.7 25.2 16.0 55 6.0 NNE 13 17 7 9 1005.5 1005.0 0.0
23/01:30am 25.8 25.6 15.8 54 6.1 NNE 11 17 6 9 1005.7 1005.2 0.0
23/01:00am 26.1 25.6 15.8 53 6.3 NNE 13 17 7 9 1005.7 1005.2 0.0
23/12:30am 26.3 25.7 15.7 52 6.5 NNE 13 17 7 9 1005.9 1005.4 0.0
23/12:00am 26.7 26.4 15.4 50 6.9 NNE 11 15 6 8 1006.0 1005.5 0.0
 
Date/Time
EDT
Temp
°C
App
Temp
°C
Dew
Point
Rel
Hum
%
Delta-T
°C
Wind Press
QNH
hPa
Press
MSL
hPa
Rain
since 9 am
mm
Dir
 
Spd
km/h
Gust
km/h
Spd
kts
Gust
kts
22/11:30pm 27.1 26.8 15.5 49 7.1 NNE 11 15 6 8 1006.1 1005.6 0.0
22/11:00pm 27.5 27.2 15.5 48 7.4 NE 11 15 6 8 1006.3 1005.8 0.0
22/10:30pm 27.4 27.7 16.1 50 7.0 NNE 9 11 5 6 1006.5 1006.0 0.0
22/10:00pm 28.3 28.3 15.2 44 8.0 NE 9 9 5 5 1006.4 1005.9 0.0
22/09:30pm 29.5 29.8 14.9 41 8.9 NNE 7 9 4 5 1006.3 1005.8 0.0

Other Formats:

Comma delimited format used in spreadsheet applications
http://www.bom.gov.au/fwo/IDV60801/IDV60801.94875.axf

JavaScript Object Notation format (JSON) in row-major order
http://www.bom.gov.au/fwo/IDV60801/IDV60801.94875.json